createdAt,value
2022-11-26T00:02:21.585Z,54.53
2022-11-26T00:04:54.250Z,58.63
2022-11-26T00:07:25.937Z,54.63
2022-11-26T00:09:56.349Z,58.10
2022-11-26T00:12:25.715Z,57.23
2022-11-26T00:14:52.706Z,53.97
2022-11-26T00:17:22.963Z,62.30
2022-11-26T00:19:51.873Z,60.03
2022-11-26T00:22:27.427Z,64.63
2022-11-26T00:25:01.647Z,63.00
2022-11-26T00:27:28.648Z,68.73
2022-11-26T00:29:55.729Z,62.30
2022-11-26T00:32:26.001Z,74.70
2022-11-26T00:34:53.281Z,64.37
2022-11-26T00:37:21.486Z,70.43
2022-11-26T00:39:48.527Z,67.33
2022-11-26T00:42:15.201Z,65.30
2022-11-26T00:44:49.306Z,63.17
2022-11-26T00:47:31.340Z,59.87
2022-11-26T00:49:58.080Z,58.83
2022-11-26T00:52:34.047Z,69.80
2022-11-26T00:55:04.074Z,54.43
2022-11-26T00:57:30.893Z,64.67
2022-11-26T00:59:57.649Z,57.70
2022-11-26T01:02:24.334Z,58.87
2022-11-26T01:04:51.331Z,59.20
2022-11-26T01:07:21.386Z,65.53
2022-11-26T01:09:48.577Z,62.97
2022-11-26T01:12:15.708Z,60.00
2022-11-26T01:14:42.509Z,59.20
2022-11-26T01:17:11.369Z,66.77
2022-11-26T01:19:42.516Z,55.73
2022-11-26T01:22:21.268Z,61.83
2022-11-26T01:24:48.269Z,56.47
2022-11-26T01:27:15.048Z,51.83
2022-11-26T01:29:41.787Z,52.00
2022-11-26T01:32:10.361Z,58.73
2022-11-26T01:34:42.676Z,61.17
2022-11-26T01:37:14.043Z,59.73
2022-11-26T01:39:40.833Z,52.03
2022-11-26T01:42:48.705Z,60.87
2022-11-26T01:45:17.735Z,66.47
2022-11-26T01:47:48.752Z,62.47
2022-11-26T01:50:28.199Z,73.57
2022-11-26T01:53:16.277Z,68.30
2022-11-26T01:55:50.317Z,73.80
2022-11-26T01:58:21.287Z,70.37
2022-11-26T02:00:49.220Z,80.83
2022-11-26T02:03:16.696Z,70.87
2022-11-26T02:05:50.772Z,66.27
2022-11-26T02:08:17.733Z,58.73
2022-11-26T02:10:44.312Z,59.70
2022-11-26T02:13:11.007Z,61.77
2022-11-26T02:16:23.231Z,67.27
2022-11-26T02:19:06.226Z,63.73
2022-11-26T02:21:34.253Z,60.13
2022-11-26T02:24:17.969Z,69.10
2022-11-26T02:27:32.102Z,64.07
2022-11-26T02:30:09.119Z,65.97
2022-11-26T02:32:58.543Z,59.33
2022-11-26T02:35:33.368Z,94.23
2022-11-26T02:38:05.542Z,73.20
2022-11-26T02:40:32.320Z,63.83
2022-11-26T02:43:01.648Z,51.87
2022-11-26T02:45:35.433Z,60.43
2022-11-26T02:48:04.117Z,64.10
2022-11-26T02:50:38.266Z,56.10
2022-11-26T02:53:05.706Z,57.90
2022-11-26T02:55:35.781Z,50.83
2022-11-26T02:58:02.940Z,56.67
2022-11-26T03:00:32.070Z,49.23
2022-11-26T03:03:33.421Z,60.77
2022-11-26T03:06:04.843Z,68.90
2022-11-26T03:08:32.665Z,59.43
2022-11-26T03:10:59.617Z,67.07
2022-11-26T03:13:26.283Z,50.43
2022-11-26T03:15:53.301Z,48.80
2022-11-26T03:18:19.891Z,54.13
2022-11-26T03:20:46.634Z,51.33
2022-11-26T03:23:20.626Z,64.43
2022-11-26T03:25:47.202Z,59.97
2022-11-26T03:28:13.825Z,78.30
2022-11-26T03:30:40.465Z,59.30
2022-11-26T03:33:07.162Z,69.43
2022-11-26T03:35:37.020Z,57.13
2022-11-26T03:38:03.648Z,54.67
2022-11-26T03:40:30.265Z,55.30
2022-11-26T03:42:56.871Z,92.40
2022-11-26T03:45:31.274Z,45.10
2022-11-26T03:47:57.970Z,55.43
2022-11-26T03:50:30.712Z,54.67
2022-11-26T03:52:57.381Z,55.93
2022-11-26T03:55:27.147Z,44.50
2022-11-26T03:57:56.754Z,68.63
2022-11-26T04:00:26.329Z,59.13
2022-11-26T04:02:57.119Z,48.00
2022-11-26T04:05:23.780Z,58.70
2022-11-26T04:07:56.128Z,49.83
2022-11-26T04:10:31.919Z,50.03
2022-11-26T04:12:58.661Z,54.43
2022-11-26T04:15:27.901Z,56.77
2022-11-26T04:17:59.466Z,56.57
2022-11-26T04:20:26.121Z,54.03
2022-11-26T04:22:53.761Z,53.33
2022-11-26T04:25:41.951Z,48.33
2022-11-26T04:28:13.425Z,49.10
2022-11-26T04:30:40.017Z,63.17
2022-11-26T04:33:06.614Z,62.47
2022-11-26T04:35:33.180Z,47.37
2022-11-26T04:37:59.834Z,55.03
2022-11-26T04:40:29.811Z,47.67
2022-11-26T04:42:56.389Z,55.80
2022-11-26T04:45:27.268Z,50.93
2022-11-26T04:47:54.041Z,52.40
2022-11-26T04:50:24.088Z,46.53
2022-11-26T04:52:56.113Z,53.77
2022-11-26T04:55:23.027Z,52.17
2022-11-26T04:57:54.135Z,46.67
2022-11-26T05:00:26.216Z,49.67
2022-11-26T05:02:55.526Z,51.60
2022-11-26T05:05:31.112Z,37.23
2022-11-26T05:07:57.836Z,41.30
2022-11-26T05:10:26.783Z,49.83
2022-11-26T05:12:57.836Z,53.07
2022-11-26T05:15:27.532Z,44.93
2022-11-26T05:17:56.720Z,53.10
2022-11-26T05:20:23.627Z,46.73
2022-11-26T05:22:59.582Z,57.13
2022-11-26T05:25:26.204Z,52.80
2022-11-26T05:27:52.797Z,41.50
2022-11-26T05:30:23.960Z,49.10
2022-11-26T05:32:50.619Z,50.60
2022-11-26T05:35:19.647Z,52.73
2022-11-26T05:37:46.226Z,54.27
2022-11-26T05:40:13.136Z,50.00
2022-11-26T05:42:42.204Z,47.73
2022-11-26T05:45:09.174Z,48.13
2022-11-26T05:47:35.865Z,52.07
2022-11-26T05:50:02.631Z,60.13
2022-11-26T05:52:29.287Z,45.70
2022-11-26T05:54:58.265Z,48.43
2022-11-26T05:57:24.969Z,44.80
2022-11-26T05:59:51.636Z,42.77
2022-11-26T06:02:18.499Z,96.73
2022-11-26T06:04:45.324Z,61.43
2022-11-26T06:07:11.985Z,48.73
2022-11-26T06:09:38.747Z,48.93
2022-11-26T06:12:05.836Z,43.57
2022-11-26T06:14:37.220Z,39.67
2022-11-26T06:17:07.061Z,62.30
2022-11-26T06:19:38.830Z,45.23
2022-11-26T06:22:05.444Z,44.70
2022-11-26T06:24:32.164Z,41.20
2022-11-26T06:26:58.785Z,44.20
2022-11-26T06:29:28.106Z,52.47
2022-11-26T06:31:55.391Z,41.27
2022-11-26T06:34:22.275Z,42.00
2022-11-26T06:36:48.933Z,44.57
2022-11-26T06:39:15.538Z,52.90
2022-11-26T06:41:42.192Z,49.53
2022-11-26T06:44:11.093Z,52.90
2022-11-26T06:46:37.712Z,55.27
2022-11-26T06:49:05.435Z,47.30
2022-11-26T06:51:32.799Z,44.90
2022-11-26T06:53:59.613Z,67.60
2022-11-26T06:56:28.822Z,54.53
2022-11-26T06:58:58.508Z,68.63
2022-11-26T07:01:26.447Z,55.87
2022-11-26T07:03:53.312Z,53.43
2022-11-26T07:06:22.844Z,56.63
2022-11-26T07:08:50.677Z,56.83
2022-11-26T07:11:17.812Z,54.67
2022-11-26T07:13:44.815Z,57.63
2022-11-26T07:16:12.026Z,56.70
2022-11-26T07:18:38.844Z,62.90
2022-11-26T07:21:12.930Z,62.70
2022-11-26T07:23:40.518Z,63.93
2022-11-26T07:26:08.538Z,67.20
2022-11-26T07:28:38.577Z,62.30
2022-11-26T07:31:12.980Z,59.40
2022-11-26T07:33:47.292Z,59.10
2022-11-26T07:36:19.689Z,57.50
2022-11-26T07:38:54.744Z,66.77
2022-11-26T07:41:21.728Z,54.50
2022-11-26T07:43:48.583Z,69.93
2022-11-26T07:46:24.295Z,60.27
2022-11-26T07:48:51.277Z,61.50
2022-11-26T07:51:31.645Z,56.30
2022-11-26T07:54:00.389Z,60.20
2022-11-26T07:56:27.281Z,71.40
2022-11-26T07:58:54.037Z,68.43
2022-11-26T08:01:27.204Z,68.67
2022-11-26T08:03:53.979Z,50.60
2022-11-26T08:06:23.534Z,72.87
2022-11-26T08:08:56.520Z,79.27
2022-11-26T08:11:26.826Z,62.50
2022-11-26T08:14:01.586Z,75.57
2022-11-26T08:16:29.268Z,86.40
2022-11-26T08:18:58.018Z,70.53
2022-11-26T08:21:24.891Z,61.50
2022-11-26T08:23:52.653Z,74.80
2022-11-26T08:26:33.975Z,85.70
2022-11-26T08:29:10.056Z,86.50
2022-11-26T08:31:41.048Z,88.60
2022-11-26T08:34:16.303Z,86.07
2022-11-26T08:36:43.591Z,87.93
2022-11-26T08:39:13.765Z,78.70
2022-11-26T08:41:47.363Z,88.80
2022-11-26T08:44:17.222Z,87.67
2022-11-26T08:46:43.797Z,93.23
2022-11-26T08:49:14.938Z,97.00
2022-11-26T08:51:42.060Z,108.27
2022-11-26T08:54:08.747Z,88.73
2022-11-26T08:56:35.506Z,91.80
2022-11-26T08:59:02.190Z,103.43
2022-11-26T09:01:33.149Z,100.70
2022-11-26T09:04:01.222Z,92.03
2022-11-26T09:06:29.615Z,98.70
2022-11-26T09:09:15.036Z,99.03
2022-11-26T09:11:48.571Z,101.37
2022-11-26T09:14:17.404Z,97.00
2022-11-26T09:16:44.447Z,111.67
2022-11-26T09:19:12.902Z,105.53
2022-11-26T09:21:46.964Z,107.80
2022-11-26T09:24:14.382Z,120.87
2022-11-26T09:26:41.094Z,112.37
2022-11-26T09:29:08.010Z,98.43
2022-11-26T09:31:42.738Z,102.63
2022-11-26T09:34:19.153Z,112.27
2022-11-26T09:36:45.805Z,114.10
2022-11-26T09:39:13.280Z,119.37
2022-11-26T09:42:16.084Z,110.03
2022-11-26T09:44:54.386Z,117.10
2022-11-26T09:47:26.698Z,122.10
2022-11-26T09:49:53.180Z,102.97
2022-11-26T09:52:21.694Z,113.33
2022-11-26T09:54:50.709Z,106.43
2022-11-26T09:57:46.072Z,84.40
2022-11-26T10:00:35.572Z,95.67
2022-11-26T10:03:02.251Z,98.30
2022-11-26T10:06:01.138Z,79.80
2022-11-26T10:08:34.321Z,79.10
2022-11-26T10:11:15.995Z,92.47
2022-11-26T10:14:09.247Z,90.30
2022-11-26T10:16:42.730Z,97.17
2022-11-26T10:19:24.762Z,97.53
2022-11-26T10:21:59.835Z,78.67
2022-11-26T10:24:33.674Z,90.67
2022-11-26T10:27:06.363Z,100.50
2022-11-26T10:29:44.436Z,92.73
2022-11-26T10:32:25.929Z,96.93
2022-11-26T10:34:57.943Z,85.50
2022-11-26T10:37:27.000Z,81.70
2022-11-26T10:40:27.509Z,100.07
2022-11-26T10:43:13.111Z,85.17
2022-11-26T10:45:49.957Z,96.67
2022-11-26T10:48:25.562Z,95.97
2022-11-26T10:51:09.849Z,88.20
2022-11-26T10:53:57.309Z,89.47
2022-11-26T10:56:32.342Z,81.40
2022-11-26T10:59:03.105Z,78.47
2022-11-26T11:01:36.829Z,72.23
2022-11-26T11:04:31.880Z,75.67
2022-11-26T11:06:58.852Z,79.00
2022-11-26T11:09:30.223Z,76.70
2022-11-26T11:12:11.996Z,77.33
2022-11-26T11:14:43.200Z,67.57
2022-11-26T11:17:32.367Z,66.07
2022-11-26T11:20:29.430Z,67.70
2022-11-26T11:23:06.671Z,59.80
2022-11-26T11:25:35.581Z,63.63
2022-11-26T11:28:11.722Z,50.87
2022-11-26T11:30:40.381Z,60.67
2022-11-26T11:33:19.503Z,60.03
2022-11-26T11:36:13.362Z,46.13
2022-11-26T11:38:55.088Z,47.13
2022-11-26T11:41:33.824Z,66.47
2022-11-26T11:44:05.847Z,55.53
2022-11-26T11:47:00.115Z,61.80
2022-11-26T11:49:38.070Z,67.70
2022-11-26T11:52:14.028Z,70.13
2022-11-26T11:54:58.076Z,56.80
2022-11-26T11:57:42.796Z,53.77
2022-11-26T12:00:17.334Z,51.97
2022-11-26T12:02:48.115Z,49.93
2022-11-26T12:05:30.051Z,43.63
2022-11-26T12:08:26.081Z,55.27
2022-11-26T12:11:17.021Z,56.90
2022-11-26T12:13:49.286Z,50.77
2022-11-26T12:16:19.572Z,50.90
2022-11-26T12:19:00.185Z,58.27
2022-11-26T12:21:48.580Z,45.90
2022-11-26T12:24:22.631Z,42.43
2022-11-26T12:26:54.960Z,39.70
2022-11-26T12:29:29.300Z,49.90
2022-11-26T12:32:05.316Z,48.30
2022-11-26T12:34:35.146Z,41.33
2022-11-26T12:37:04.598Z,48.83
2022-11-26T12:39:52.029Z,43.33
2022-11-26T12:42:34.053Z,45.50
2022-11-26T12:45:19.473Z,44.30
2022-11-26T12:47:54.748Z,47.27
2022-11-26T12:50:29.588Z,39.37
2022-11-26T12:53:23.479Z,41.70
2022-11-26T12:55:50.153Z,35.60
2022-11-26T12:58:27.535Z,44.40
2022-11-26T13:00:55.560Z,42.03
2022-11-26T13:03:28.774Z,37.80
2022-11-26T13:06:01.636Z,51.73
2022-11-26T13:08:49.500Z,41.73
2022-11-26T13:12:00.982Z,43.30
2022-11-26T13:14:42.054Z,38.97
2022-11-26T13:17:17.060Z,38.93
2022-11-26T13:19:54.064Z,40.57
2022-11-26T13:22:35.921Z,41.57
2022-11-26T13:25:26.808Z,40.03
2022-11-26T13:28:03.771Z,36.43
2022-11-26T13:30:56.535Z,51.57
2022-11-26T13:33:51.711Z,36.40
2022-11-26T13:36:47.712Z,33.63
2022-11-26T13:39:46.604Z,42.23
2022-11-26T13:42:28.553Z,36.20
2022-11-26T13:45:09.235Z,33.93
2022-11-26T13:47:52.924Z,34.17
2022-11-26T13:50:25.724Z,44.23
2022-11-26T13:52:58.476Z,36.83
2022-11-26T13:55:49.875Z,33.50
2022-11-26T13:58:24.238Z,38.03
2022-11-26T14:00:54.048Z,32.67
2022-11-26T14:03:46.731Z,33.63
2022-11-26T14:06:22.081Z,42.20
2022-11-26T14:08:54.525Z,34.30
2022-11-26T14:11:50.999Z,38.80
2022-11-26T14:14:28.675Z,32.53
2022-11-26T14:17:01.480Z,37.37
2022-11-26T14:19:40.301Z,36.13
2022-11-26T14:22:09.732Z,29.97
2022-11-26T14:24:51.525Z,31.37
2022-11-26T14:27:21.980Z,37.67
2022-11-26T14:29:58.797Z,43.17
2022-11-26T14:32:27.296Z,37.07
2022-11-26T14:34:55.767Z,36.37
2022-11-26T14:37:28.573Z,44.13
2022-11-26T14:40:30.153Z,37.20
2022-11-26T14:43:15.906Z,32.97
2022-11-26T14:46:20.721Z,43.07
2022-11-26T14:48:59.646Z,35.93
2022-11-26T14:51:29.723Z,35.07
2022-11-26T14:53:56.422Z,33.07
2022-11-26T14:56:25.199Z,33.07
2022-11-26T14:58:59.581Z,30.57
2022-11-26T15:01:29.134Z,36.60
2022-11-26T15:04:05.583Z,34.77
2022-11-26T15:06:44.872Z,39.70
2022-11-26T15:09:21.741Z,37.50
2022-11-26T15:11:56.314Z,32.00
2022-11-26T15:14:32.012Z,34.00
2022-11-26T15:17:01.105Z,30.90
2022-11-26T15:19:32.368Z,31.40
2022-11-26T15:22:00.603Z,34.47
2022-11-26T15:24:27.488Z,33.67
2022-11-26T15:26:59.538Z,31.20
2022-11-26T15:29:41.539Z,30.03
2022-11-26T15:32:30.241Z,32.53
2022-11-26T15:34:59.811Z,36.13
2022-11-26T15:37:27.343Z,33.37
2022-11-26T15:40:11.051Z,35.10
2022-11-26T15:42:39.292Z,29.33
2022-11-26T15:45:16.105Z,27.13
2022-11-26T15:47:51.509Z,25.33
2022-11-26T15:50:25.643Z,27.57
2022-11-26T15:52:59.510Z,27.90
2022-11-26T15:55:31.149Z,21.90
2022-11-26T15:57:58.674Z,26.50
2022-11-26T16:00:37.214Z,27.63
2022-11-26T16:03:11.176Z,25.43
2022-11-26T16:05:39.002Z,21.00
2022-11-26T16:08:23.526Z,28.47
2022-11-26T16:10:58.696Z,24.17
2022-11-26T16:13:32.588Z,29.80
2022-11-26T16:16:13.003Z,22.70
2022-11-26T16:18:56.596Z,26.40
2022-11-26T16:21:27.598Z,27.67
2022-11-26T16:23:58.202Z,19.63
2022-11-26T16:26:28.542Z,24.37
2022-11-26T16:28:55.385Z,23.17
2022-11-26T16:31:22.400Z,32.70
2022-11-26T16:33:57.703Z,21.43
2022-11-26T16:36:26.661Z,28.80
2022-11-26T16:38:53.474Z,25.60
2022-11-26T16:41:29.210Z,31.13
2022-11-26T16:43:58.309Z,26.57
2022-11-26T16:46:27.680Z,24.23
2022-11-26T16:48:57.300Z,28.53
2022-11-26T16:51:23.917Z,19.87
2022-11-26T16:53:50.985Z,24.07
2022-11-26T16:56:37.232Z,23.00
2022-11-26T16:59:22.795Z,18.40
2022-11-26T17:01:49.526Z,23.17
2022-11-26T17:04:18.731Z,20.40
2022-11-26T17:06:45.628Z,21.43
2022-11-26T17:09:26.618Z,22.87
2022-11-26T17:11:53.364Z,20.03
2022-11-26T17:14:20.060Z,20.53
2022-11-26T17:16:47.002Z,18.13
2022-11-26T17:19:15.151Z,18.70
2022-11-26T17:21:48.082Z,22.10
2022-11-26T17:24:17.618Z,23.07
2022-11-26T17:26:45.676Z,17.47
2022-11-26T17:29:17.148Z,25.23
2022-11-26T17:34:32.525Z,21.03
2022-11-26T17:37:36.350Z,19.10
2022-11-26T17:40:13.326Z,15.60
2022-11-26T17:43:24.064Z,17.10
2022-11-26T17:45:50.765Z,24.17
2022-11-26T17:48:17.387Z,25.17
2022-11-26T17:50:44.100Z,17.67
2022-11-26T17:53:14.246Z,20.60
2022-11-26T17:55:40.906Z,22.17
2022-11-26T17:58:11.179Z,21.13
2022-11-26T18:00:41.152Z,20.83
2022-11-26T18:03:07.956Z,19.40
2022-11-26T18:05:37.908Z,23.27
2022-11-26T18:08:18.784Z,22.33
2022-11-26T18:13:40.988Z,14.43
2022-11-26T18:16:29.535Z,16.17
2022-11-26T18:18:56.334Z,21.03
2022-11-26T18:21:23.054Z,22.90
2022-11-26T18:24:15.269Z,21.43
2022-11-26T18:26:42.682Z,22.87
2022-11-26T18:29:13.104Z,15.13
2022-11-26T18:31:40.278Z,15.80
2022-11-26T18:34:32.256Z,19.07
2022-11-26T18:36:58.869Z,21.43
2022-11-26T18:39:25.478Z,17.67
2022-11-26T18:41:54.561Z,21.10
2022-11-26T18:44:24.078Z,16.50
2022-11-26T18:46:50.717Z,19.70
2022-11-26T18:49:17.408Z,21.37
2022-11-26T18:51:44.744Z,24.47
2022-11-26T18:54:11.338Z,15.23
2022-11-26T18:56:37.950Z,29.60
2022-11-26T18:59:04.540Z,17.37
2022-11-26T19:01:32.057Z,11.87
2022-11-26T19:03:59.337Z,26.87
2022-11-26T19:06:28.845Z,18.20
2022-11-26T19:09:01.448Z,17.33
2022-11-26T19:11:28.917Z,19.97
2022-11-26T19:13:56.545Z,13.80
2022-11-26T19:16:24.060Z,17.83
2022-11-26T19:18:50.779Z,19.10
2022-11-26T19:21:21.640Z,18.07
2022-11-26T19:23:49.301Z,20.23
2022-11-26T19:26:16.639Z,31.50
2022-11-26T19:28:43.592Z,21.93
2022-11-26T19:31:13.121Z,12.53
2022-11-26T19:33:40.488Z,11.37
2022-11-26T19:36:09.784Z,16.93
2022-11-26T19:38:37.057Z,18.63
2022-11-26T19:41:06.297Z,22.87
2022-11-26T19:43:35.350Z,19.50
2022-11-26T19:46:09.130Z,24.83
2022-11-26T19:48:37.749Z,24.07
2022-11-26T19:51:05.781Z,18.03
2022-11-26T19:53:33.127Z,12.23
2022-11-26T19:56:04.324Z,18.90
2022-11-26T19:58:32.659Z,18.83
2022-11-26T20:00:59.630Z,19.60
2022-11-26T20:03:26.343Z,27.93
2022-11-26T20:05:52.937Z,22.80
2022-11-26T20:08:19.536Z,24.70
2022-11-26T20:10:49.924Z,29.27
2022-11-26T20:13:16.787Z,16.23
2022-11-26T20:15:48.359Z,26.10
2022-11-26T20:18:17.884Z,20.40
2022-11-26T20:20:48.645Z,22.30
2022-11-26T20:23:15.270Z,15.77
2022-11-26T20:25:41.984Z,18.63
2022-11-26T20:28:09.126Z,18.77
2022-11-26T20:30:37.656Z,25.40
2022-11-26T20:33:07.741Z,18.57
2022-11-26T20:35:34.388Z,20.17
2022-11-26T20:38:01.004Z,16.40
2022-11-26T20:40:27.662Z,18.87
2022-11-26T20:42:54.299Z,15.17
2022-11-26T20:45:32.783Z,17.13
2022-11-26T20:48:16.196Z,23.50
2022-11-26T20:50:42.808Z,17.77
2022-11-26T20:53:09.472Z,17.77
2022-11-26T20:55:59.150Z,17.90
2022-11-26T20:58:26.587Z,19.13
2022-11-26T21:00:55.283Z,16.60
2022-11-26T21:03:25.942Z,19.77
2022-11-26T21:06:09.300Z,23.37
2022-11-26T21:08:57.442Z,17.37
2022-11-26T21:11:27.927Z,26.97
2022-11-26T21:13:54.848Z,20.37
2022-11-26T21:16:22.530Z,20.37
2022-11-26T21:19:14.151Z,19.60
2022-11-26T21:21:41.907Z,21.00
2022-11-26T21:24:10.188Z,29.47
2022-11-26T21:26:36.848Z,19.90
2022-11-26T21:31:44.213Z,24.53
2022-11-26T21:34:15.120Z,23.00
2022-11-26T21:36:44.899Z,19.20
2022-11-26T21:39:15.155Z,27.33
2022-11-26T21:41:41.877Z,19.37
2022-11-26T21:44:09.264Z,18.70
2022-11-26T21:46:38.664Z,19.80
2022-11-26T21:49:07.080Z,16.77
2022-11-26T21:51:33.921Z,23.60
2022-11-26T21:54:00.621Z,21.30
2022-11-26T21:56:29.934Z,28.00
2022-11-26T21:58:57.855Z,17.83
2022-11-26T22:01:26.144Z,17.73
2022-11-26T22:03:54.697Z,19.00
2022-11-26T22:06:23.303Z,16.30
2022-11-26T22:08:51.878Z,23.47
2022-11-26T22:11:24.045Z,26.23
2022-11-26T22:13:51.698Z,20.87
2022-11-26T22:16:23.862Z,22.83
2022-11-26T22:18:52.279Z,26.43
2022-11-26T22:21:21.919Z,26.90
2022-11-26T22:23:52.416Z,20.30
2022-11-26T22:26:21.108Z,25.97
2022-11-26T22:28:49.754Z,29.80
2022-11-26T22:31:19.871Z,26.70
2022-11-26T22:33:46.872Z,27.07
2022-11-26T22:36:13.921Z,26.30
2022-11-26T22:38:41.312Z,30.67
2022-11-26T22:41:13.659Z,29.03
2022-11-26T22:43:41.189Z,24.80
2022-11-26T22:46:10.558Z,26.63
2022-11-26T22:48:37.273Z,27.53
2022-11-26T22:51:06.507Z,24.93
2022-11-26T22:53:36.816Z,31.20
2022-11-26T22:56:04.149Z,31.20
2022-11-26T22:58:31.872Z,24.03
2022-11-26T23:01:06.836Z,28.27
2022-11-26T23:03:35.580Z,42.97
2022-11-26T23:06:08.362Z,35.57
2022-11-26T23:08:39.064Z,37.10
2022-11-26T23:11:25.950Z,38.53
2022-11-26T23:13:54.039Z,33.07
2022-11-26T23:16:32.552Z,35.20
2022-11-26T23:22:41.579Z,36.57
2022-11-26T23:25:09.168Z,39.33
2022-11-26T23:27:35.840Z,35.33
2022-11-26T23:30:02.694Z,43.60
2022-11-26T23:32:32.938Z,33.57
2022-11-26T23:35:05.321Z,34.77
2022-11-26T23:37:40.826Z,39.70
2022-11-26T23:40:13.517Z,44.20
2022-11-26T23:42:40.254Z,31.70
2022-11-26T23:45:12.887Z,47.43
2022-11-26T23:47:40.414Z,38.57
2022-11-26T23:50:08.060Z,42.47
2022-11-26T23:52:35.494Z,33.40
2022-11-26T23:55:02.407Z,39.63
2022-11-26T23:57:29.040Z,37.90
2022-11-26T23:59:55.700Z,42.80
